sensor_id;sensor_type;location;lat;lon;timestamp;P1;P2;P0
64114;PMS5003;62188;35.640;139.748;2022-11-20T00:00:57;26;26;
64114;PMS5003;62188;35.640;139.748;2022-11-20T00:03:22;24;23;
64114;PMS5003;62188;35.640;139.748;2022-11-20T00:05:48;24;21;
64114;PMS5003;62188;35.640;139.748;2022-11-20T00:08:13;22;21;
64114;PMS5003;62188;35.640;139.748;2022-11-20T00:10:39;22;22;
64114;PMS5003;62188;35.640;139.748;2022-11-20T00:13:04;28;25;
64114;PMS5003;62188;35.640;139.748;2022-11-20T00:15:29;25;24;
64114;PMS5003;62188;35.640;139.748;2022-11-20T00:17:55;26;26;
64114;PMS5003;62188;35.640;139.748;2022-11-20T00:20:20;23;23;
64114;PMS5003;62188;35.640;139.748;2022-11-20T00:22:45;30;29;
64114;PMS5003;62188;35.640;139.748;2022-11-20T00:25:11;30;28;
64114;PMS5003;62188;35.640;139.748;2022-11-20T00:27:36;30;29;
64114;PMS5003;62188;35.640;139.748;2022-11-20T00:30:02;24;24;
64114;PMS5003;62188;35.640;139.748;2022-11-20T00:32:27;29;27;
64114;PMS5003;62188;35.640;139.748;2022-11-20T00:34:52;26;26;
64114;PMS5003;62188;35.640;139.748;2022-11-20T00:37:18;28;28;
64114;PMS5003;62188;35.640;139.748;2022-11-20T00:39:43;32;31;
64114;PMS5003;62188;35.640;139.748;2022-11-20T00:42:09;29;28;
64114;PMS5003;62188;35.640;139.748;2022-11-20T00:44:34;23;23;
64114;PMS5003;62188;35.640;139.748;2022-11-20T00:47:00;29;26;
64114;PMS5003;62188;35.640;139.748;2022-11-20T00:49:25;28;28;
64114;PMS5003;62188;35.640;139.748;2022-11-20T00:51:51;28;27;
64114;PMS5003;62188;35.640;139.748;2022-11-20T00:54:17;27;26;
64114;PMS5003;62188;35.640;139.748;2022-11-20T00:56:42;29;27;
64114;PMS5003;62188;35.640;139.748;2022-11-20T00:59:08;24;23;
64114;PMS5003;62188;35.640;139.748;2022-11-20T01:01:34;27;26;
64114;PMS5003;62188;35.640;139.748;2022-11-20T01:03:59;24;24;
64114;PMS5003;62188;35.640;139.748;2022-11-20T01:06:26;24;23;
64114;PMS5003;62188;35.640;139.748;2022-11-20T01:08:50;26;26;
64114;PMS5003;62188;35.640;139.748;2022-11-20T01:11:16;25;25;
64114;PMS5003;62188;35.640;139.748;2022-11-20T01:13:41;25;23;
64114;PMS5003;62188;35.640;139.748;2022-11-20T01:16:07;25;24;
64114;PMS5003;62188;35.640;139.748;2022-11-20T01:18:32;30;26;
64114;PMS5003;62188;35.640;139.748;2022-11-20T01:21:00;25;25;
64114;PMS5003;62188;35.640;139.748;2022-11-20T01:23:23;27;26;
64114;PMS5003;62188;35.640;139.748;2022-11-20T01:25:49;26;24;
64114;PMS5003;62188;35.640;139.748;2022-11-20T01:28:14;24;23;
64114;PMS5003;62188;35.640;139.748;2022-11-20T01:30:39;22;21;
64114;PMS5003;62188;35.640;139.748;2022-11-20T01:33:05;27;26;
64114;PMS5003;62188;35.640;139.748;2022-11-20T01:35:31;23;23;
64114;PMS5003;62188;35.640;139.748;2022-11-20T01:37:56;23;22;
64114;PMS5003;62188;35.640;139.748;2022-11-20T01:40:22;25;24;
64114;PMS5003;62188;35.640;139.748;2022-11-20T01:42:51;24;23;
64114;PMS5003;62188;35.640;139.748;2022-11-20T01:47:39;23;23;
64114;PMS5003;62188;35.640;139.748;2022-11-20T01:50:05;31;29;
64114;PMS5003;62188;35.640;139.748;2022-11-20T01:52:29;25;24;
64114;PMS5003;62188;35.640;139.748;2022-11-20T01:54:55;25;24;
64114;PMS5003;62188;35.640;139.748;2022-11-20T01:57:20;24;22;
64114;PMS5003;62188;35.640;139.748;2022-11-20T01:59:47;24;22;
64114;PMS5003;62188;35.640;139.748;2022-11-20T02:02:11;28;27;
64114;PMS5003;62188;35.640;139.748;2022-11-20T02:04:36;27;25;
64114;PMS5003;62188;35.640;139.748;2022-11-20T02:07:02;25;23;
64114;PMS5003;62188;35.640;139.748;2022-11-20T02:09:27;24;24;
64114;PMS5003;62188;35.640;139.748;2022-11-20T02:11:52;30;29;
64114;PMS5003;62188;35.640;139.748;2022-11-20T02:14:18;27;27;
64114;PMS5003;62188;35.640;139.748;2022-11-20T02:16:45;29;25;
64114;PMS5003;62188;35.640;139.748;2022-11-20T02:19:09;29;26;
64114;PMS5003;62188;35.640;139.748;2022-11-20T02:21:35;27;26;
64114;PMS5003;62188;35.640;139.748;2022-11-20T02:24:03;25;25;
64114;PMS5003;62188;35.640;139.748;2022-11-20T02:26:25;27;26;
64114;PMS5003;62188;35.640;139.748;2022-11-20T02:28:50;23;23;
64114;PMS5003;62188;35.640;139.748;2022-11-20T02:31:16;29;26;
64114;PMS5003;62188;35.640;139.748;2022-11-20T02:33:41;28;28;
64114;PMS5003;62188;35.640;139.748;2022-11-20T02:36:08;25;24;
64114;PMS5003;62188;35.640;139.748;2022-11-20T02:38:32;27;27;
64114;PMS5003;62188;35.640;139.748;2022-11-20T02:40:57;27;26;
64114;PMS5003;62188;35.640;139.748;2022-11-20T02:43:23;28;27;
64114;PMS5003;62188;35.640;139.748;2022-11-20T02:45:49;24;23;
64114;PMS5003;62188;35.640;139.748;2022-11-20T02:48:14;29;26;
64114;PMS5003;62188;35.640;139.748;2022-11-20T02:50:40;28;26;
64114;PMS5003;62188;35.640;139.748;2022-11-20T02:53:06;29;28;
64114;PMS5003;62188;35.640;139.748;2022-11-20T02:55:32;32;27;
64114;PMS5003;62188;35.640;139.748;2022-11-20T02:57:57;25;24;
64114;PMS5003;62188;35.640;139.748;2022-11-20T03:00:22;26;24;
64114;PMS5003;62188;35.640;139.748;2022-11-20T03:02:48;33;30;
64114;PMS5003;62188;35.640;139.748;2022-11-20T03:05:13;28;26;
64114;PMS5003;62188;35.640;139.748;2022-11-20T03:07:38;31;31;
64114;PMS5003;62188;35.640;139.748;2022-11-20T03:10:04;28;27;
64114;PMS5003;62188;35.640;139.748;2022-11-20T03:12:30;24;23;
64114;PMS5003;62188;35.640;139.748;2022-11-20T03:14:56;28;27;
64114;PMS5003;62188;35.640;139.748;2022-11-20T03:17:22;33;29;
64114;PMS5003;62188;35.640;139.748;2022-11-20T03:19:47;33;31;
64114;PMS5003;62188;35.640;139.748;2022-11-20T03:22:13;30;28;
64114;PMS5003;62188;35.640;139.748;2022-11-20T03:24:38;27;26;
64114;PMS5003;62188;35.640;139.748;2022-11-20T03:27:03;28;27;
64114;PMS5003;62188;35.640;139.748;2022-11-20T03:29:29;31;29;
64114;PMS5003;62188;35.640;139.748;2022-11-20T03:31:55;27;26;
64114;PMS5003;62188;35.640;139.748;2022-11-20T03:34:20;28;28;
64114;PMS5003;62188;35.640;139.748;2022-11-20T03:36:46;29;27;
64114;PMS5003;62188;35.640;139.748;2022-11-20T03:39:12;27;27;
64114;PMS5003;62188;35.640;139.748;2022-11-20T03:41:37;34;30;
64114;PMS5003;62188;35.640;139.748;2022-11-20T03:44:03;32;28;
64114;PMS5003;62188;35.640;139.748;2022-11-20T03:46:28;31;31;
64114;PMS5003;62188;35.640;139.748;2022-11-20T03:48:54;29;28;
64114;PMS5003;62188;35.640;139.748;2022-11-20T03:51:20;31;31;
64114;PMS5003;62188;35.640;139.748;2022-11-20T03:53:45;33;33;
64114;PMS5003;62188;35.640;139.748;2022-11-20T03:56:11;30;30;
64114;PMS5003;62188;35.640;139.748;2022-11-20T03:58:36;32;31;
64114;PMS5003;62188;35.640;139.748;2022-11-20T04:01:05;25;24;
64114;PMS5003;62188;35.640;139.748;2022-11-20T04:03:27;28;27;
64114;PMS5003;62188;35.640;139.748;2022-11-20T04:05:52;28;27;
64114;PMS5003;62188;35.640;139.748;2022-11-20T04:08:18;28;26;
64114;PMS5003;62188;35.640;139.748;2022-11-20T04:10:43;31;30;
64114;PMS5003;62188;35.640;139.748;2022-11-20T04:13:09;31;28;
64114;PMS5003;62188;35.640;139.748;2022-11-20T04:15:35;30;25;
64114;PMS5003;62188;35.640;139.748;2022-11-20T04:18:00;30;29;
64114;PMS5003;62188;35.640;139.748;2022-11-20T04:20:25;30;28;
64114;PMS5003;62188;35.640;139.748;2022-11-20T04:22:53;32;30;
64114;PMS5003;62188;35.640;139.748;2022-11-20T04:25:16;30;27;
64114;PMS5003;62188;35.640;139.748;2022-11-20T04:27:41;30;29;
64114;PMS5003;62188;35.640;139.748;2022-11-20T04:30:07;38;35;
64114;PMS5003;62188;35.640;139.748;2022-11-20T04:32:32;30;30;
64114;PMS5003;62188;35.640;139.748;2022-11-20T04:34:57;27;27;
64114;PMS5003;62188;35.640;139.748;2022-11-20T04:37:23;32;32;
64114;PMS5003;62188;35.640;139.748;2022-11-20T04:39:48;30;30;
64114;PMS5003;62188;35.640;139.748;2022-11-20T04:42:14;29;27;
64114;PMS5003;62188;35.640;139.748;2022-11-20T04:44:39;30;27;
64114;PMS5003;62188;35.640;139.748;2022-11-20T04:47:05;32;30;
64114;PMS5003;62188;35.640;139.748;2022-11-20T04:49:30;30;29;
64114;PMS5003;62188;35.640;139.748;2022-11-20T04:51:56;27;25;
64114;PMS5003;62188;35.640;139.748;2022-11-20T04:54:21;32;31;
64114;PMS5003;62188;35.640;139.748;2022-11-20T04:56:47;35;32;
64114;PMS5003;62188;35.640;139.748;2022-11-20T04:59:13;34;32;
64114;PMS5003;62188;35.640;139.748;2022-11-20T05:01:38;39;36;
64114;PMS5003;62188;35.640;139.748;2022-11-20T05:04:04;33;32;
64114;PMS5003;62188;35.640;139.748;2022-11-20T05:06:30;37;34;
64114;PMS5003;62188;35.640;139.748;2022-11-20T05:08:55;36;33;
64114;PMS5003;62188;35.640;139.748;2022-11-20T05:11:20;40;37;
64114;PMS5003;62188;35.640;139.748;2022-11-20T05:13:45;40;35;
64114;PMS5003;62188;35.640;139.748;2022-11-20T05:16:11;33;32;
64114;PMS5003;62188;35.640;139.748;2022-11-20T05:18:36;33;33;
64114;PMS5003;62188;35.640;139.748;2022-11-20T05:21:01;36;30;
64114;PMS5003;62188;35.640;139.748;2022-11-20T05:23:25;35;33;
64114;PMS5003;62188;35.640;139.748;2022-11-20T05:25:52;34;31;
64114;PMS5003;62188;35.640;139.748;2022-11-20T05:28:16;37;35;
64114;PMS5003;62188;35.640;139.748;2022-11-20T05:30:42;38;36;
64114;PMS5003;62188;35.640;139.748;2022-11-20T05:33:07;36;35;
64114;PMS5003;62188;35.640;139.748;2022-11-20T05:35:32;34;32;
64114;PMS5003;62188;35.640;139.748;2022-11-20T05:37:58;35;34;
64114;PMS5003;62188;35.640;139.748;2022-11-20T05:40:23;40;36;
64114;PMS5003;62188;35.640;139.748;2022-11-20T05:42:49;37;34;
64114;PMS5003;62188;35.640;139.748;2022-11-20T05:45:14;30;30;
64114;PMS5003;62188;35.640;139.748;2022-11-20T05:47:39;37;34;
64114;PMS5003;62188;35.640;139.748;2022-11-20T05:50:05;38;37;
64114;PMS5003;62188;35.640;139.748;2022-11-20T05:52:29;38;37;
64114;PMS5003;62188;35.640;139.748;2022-11-20T05:54:54;42;37;
64114;PMS5003;62188;35.640;139.748;2022-11-20T05:57:19;31;31;
64114;PMS5003;62188;35.640;139.748;2022-11-20T05:59:45;38;36;
64114;PMS5003;62188;35.640;139.748;2022-11-20T06:02:11;37;35;
64114;PMS5003;62188;35.640;139.748;2022-11-20T06:04:36;31;30;
64114;PMS5003;62188;35.640;139.748;2022-11-20T06:07:02;44;41;
64114;PMS5003;62188;35.640;139.748;2022-11-20T06:09:27;40;37;
64114;PMS5003;62188;35.640;139.748;2022-11-20T06:11:53;38;35;
64114;PMS5003;62188;35.640;139.748;2022-11-20T06:14:18;44;39;
64114;PMS5003;62188;35.640;139.748;2022-11-20T06:16:44;44;43;
64114;PMS5003;62188;35.640;139.748;2022-11-20T06:19:09;45;43;
64114;PMS5003;62188;35.640;139.748;2022-11-20T06:21:35;38;37;
64114;PMS5003;62188;35.640;139.748;2022-11-20T06:24:01;46;43;
64114;PMS5003;62188;35.640;139.748;2022-11-20T06:26:26;43;40;
64114;PMS5003;62188;35.640;139.748;2022-11-20T06:28:51;42;40;
64114;PMS5003;62188;35.640;139.748;2022-11-20T06:31:17;44;41;
64114;PMS5003;62188;35.640;139.748;2022-11-20T06:33:42;47;46;
64114;PMS5003;62188;35.640;139.748;2022-11-20T06:36:07;45;42;
64114;PMS5003;62188;35.640;139.748;2022-11-20T06:38:33;40;39;
64114;PMS5003;62188;35.640;139.748;2022-11-20T06:40:58;41;41;
64114;PMS5003;62188;35.640;139.748;2022-11-20T06:43:24;45;42;
64114;PMS5003;62188;35.640;139.748;2022-11-20T06:45:51;45;41;
64114;PMS5003;62188;35.640;139.748;2022-11-20T06:48:15;48;42;
64114;PMS5003;62188;35.640;139.748;2022-11-20T06:50:40;46;44;
64114;PMS5003;62188;35.640;139.748;2022-11-20T06:53:06;45;41;
64114;PMS5003;62188;35.640;139.748;2022-11-20T06:55:31;45;43;
64114;PMS5003;62188;35.640;139.748;2022-11-20T06:57:57;47;46;
64114;PMS5003;62188;35.640;139.748;2022-11-20T07:00:22;51;46;
64114;PMS5003;62188;35.640;139.748;2022-11-20T07:02:47;45;42;
64114;PMS5003;62188;35.640;139.748;2022-11-20T07:05:13;46;44;
64114;PMS5003;62188;35.640;139.748;2022-11-20T07:07:38;41;39;
64114;PMS5003;62188;35.640;139.748;2022-11-20T07:10:05;51;47;
64114;PMS5003;62188;35.640;139.748;2022-11-20T07:12:29;48;41;
64114;PMS5003;62188;35.640;139.748;2022-11-20T07:14:55;46;43;
64114;PMS5003;62188;35.640;139.748;2022-11-20T07:17:20;38;37;
64114;PMS5003;62188;35.640;139.748;2022-11-20T07:19:45;48;46;
64114;PMS5003;62188;35.640;139.748;2022-11-20T07:22:11;43;42;
64114;PMS5003;62188;35.640;139.748;2022-11-20T07:24:36;49;44;
64114;PMS5003;62188;35.640;139.748;2022-11-20T07:27:02;39;38;
64114;PMS5003;62188;35.640;139.748;2022-11-20T07:29:28;36;35;
64114;PMS5003;62188;35.640;139.748;2022-11-20T07:31:53;43;41;
64114;PMS5003;62188;35.640;139.748;2022-11-20T07:34:18;42;40;
64114;PMS5003;62188;35.640;139.748;2022-11-20T07:36:44;40;40;
64114;PMS5003;62188;35.640;139.748;2022-11-20T07:39:09;36;35;
64114;PMS5003;62188;35.640;139.748;2022-11-20T07:41:35;47;46;
64114;PMS5003;62188;35.640;139.748;2022-11-20T07:44:00;44;42;
64114;PMS5003;62188;35.640;139.748;2022-11-20T07:46:26;46;46;
64114;PMS5003;62188;35.640;139.748;2022-11-20T07:48:51;40;39;
64114;PMS5003;62188;35.640;139.748;2022-11-20T07:51:16;42;41;
64114;PMS5003;62188;35.640;139.748;2022-11-20T07:53:42;43;41;
64114;PMS5003;62188;35.640;139.748;2022-11-20T07:56:08;44;42;
64114;PMS5003;62188;35.640;139.748;2022-11-20T07:58:33;47;44;
64114;PMS5003;62188;35.640;139.748;2022-11-20T08:01:02;48;47;
64114;PMS5003;62188;35.640;139.748;2022-11-20T08:03:24;47;45;
64114;PMS5003;62188;35.640;139.748;2022-11-20T08:05:50;53;50;
64114;PMS5003;62188;35.640;139.748;2022-11-20T08:08:16;46;44;
64114;PMS5003;62188;35.640;139.748;2022-11-20T08:10:41;44;41;
64114;PMS5003;62188;35.640;139.748;2022-11-20T08:13:08;47;42;
64114;PMS5003;62188;35.640;139.748;2022-11-20T08:15:32;45;45;
64114;PMS5003;62188;35.640;139.748;2022-11-20T08:18:01;43;40;
64114;PMS5003;62188;35.640;139.748;2022-11-20T08:20:23;45;44;
64114;PMS5003;62188;35.640;139.748;2022-11-20T08:22:48;47;43;
64114;PMS5003;62188;35.640;139.748;2022-11-20T08:25:14;45;43;
64114;PMS5003;62188;35.640;139.748;2022-11-20T08:27:39;47;44;
64114;PMS5003;62188;35.640;139.748;2022-11-20T08:30:05;40;40;
64114;PMS5003;62188;35.640;139.748;2022-11-20T08:32:29;42;39;
64114;PMS5003;62188;35.640;139.748;2022-11-20T08:34:54;46;43;
64114;PMS5003;62188;35.640;139.748;2022-11-20T08:37:19;42;41;
64114;PMS5003;62188;35.640;139.748;2022-11-20T08:39:45;37;36;
64114;PMS5003;62188;35.640;139.748;2022-11-20T08:42:10;37;36;
64114;PMS5003;62188;35.640;139.748;2022-11-20T08:44:35;36;36;
64114;PMS5003;62188;35.640;139.748;2022-11-20T08:47:01;40;39;
64114;PMS5003;62188;35.640;139.748;2022-11-20T08:49:26;35;32;
64114;PMS5003;62188;35.640;139.748;2022-11-20T08:51:51;45;42;
64114;PMS5003;62188;35.640;139.748;2022-11-20T08:54:16;44;41;
64114;PMS5003;62188;35.640;139.748;2022-11-20T08:56:43;41;39;
64114;PMS5003;62188;35.640;139.748;2022-11-20T08:59:08;44;40;
64114;PMS5003;62188;35.640;139.748;2022-11-20T09:01:33;49;41;
64114;PMS5003;62188;35.640;139.748;2022-11-20T09:03:58;41;40;
64114;PMS5003;62188;35.640;139.748;2022-11-20T09:06:23;43;40;
64114;PMS5003;62188;35.640;139.748;2022-11-20T09:08:51;44;41;
64114;PMS5003;62188;35.640;139.748;2022-11-20T09:11:14;42;39;
64114;PMS5003;62188;35.640;139.748;2022-11-20T09:13:39;40;40;
64114;PMS5003;62188;35.640;139.748;2022-11-20T09:16:06;40;37;
64114;PMS5003;62188;35.640;139.748;2022-11-20T09:18:30;41;38;
64114;PMS5003;62188;35.640;139.748;2022-11-20T09:20:56;40;36;
64114;PMS5003;62188;35.640;139.748;2022-11-20T09:23:21;42;41;
64114;PMS5003;62188;35.640;139.748;2022-11-20T09:25:46;39;37;
64114;PMS5003;62188;35.640;139.748;2022-11-20T09:28:12;39;39;
64114;PMS5003;62188;35.640;139.748;2022-11-20T09:30:37;44;43;
64114;PMS5003;62188;35.640;139.748;2022-11-20T09:33:04;42;39;
64114;PMS5003;62188;35.640;139.748;2022-11-20T09:35:28;42;39;
64114;PMS5003;62188;35.640;139.748;2022-11-20T09:37:52;40;40;
64114;PMS5003;62188;35.640;139.748;2022-11-20T09:40:20;40;38;
64114;PMS5003;62188;35.640;139.748;2022-11-20T09:42:45;41;40;
64114;PMS5003;62188;35.640;139.748;2022-11-20T09:45:13;38;36;
64114;PMS5003;62188;35.640;139.748;2022-11-20T09:47:37;40;39;
64114;PMS5003;62188;35.640;139.748;2022-11-20T09:50:04;35;34;
64114;PMS5003;62188;35.640;139.748;2022-11-20T09:52:28;47;45;
64114;PMS5003;62188;35.640;139.748;2022-11-20T09:54:51;39;39;
64114;PMS5003;62188;35.640;139.748;2022-11-20T09:57:18;38;37;
64114;PMS5003;62188;35.640;139.748;2022-11-20T09:59:43;45;41;
64114;PMS5003;62188;35.640;139.748;2022-11-20T10:04:33;43;42;
64114;PMS5003;62188;35.640;139.748;2022-11-20T10:07:02;43;41;
64114;PMS5003;62188;35.640;139.748;2022-11-20T10:09:25;42;38;
64114;PMS5003;62188;35.640;139.748;2022-11-20T10:11:53;40;38;
64114;PMS5003;62188;35.640;139.748;2022-11-20T10:14:19;35;34;
64114;PMS5003;62188;35.640;139.748;2022-11-20T10:16:41;40;35;
64114;PMS5003;62188;35.640;139.748;2022-11-20T10:19:09;40;38;
64114;PMS5003;62188;35.640;139.748;2022-11-20T10:21:33;38;35;
64114;PMS5003;62188;35.640;139.748;2022-11-20T10:26:22;31;31;
64114;PMS5003;62188;35.640;139.748;2022-11-20T10:28:50;36;35;
64114;PMS5003;62188;35.640;139.748;2022-11-20T10:31:14;35;33;
64114;PMS5003;62188;35.640;139.748;2022-11-20T10:33:39;38;37;
64114;PMS5003;62188;35.640;139.748;2022-11-20T10:36:07;37;34;
64114;PMS5003;62188;35.640;139.748;2022-11-20T10:38:31;35;34;
64114;PMS5003;62188;35.640;139.748;2022-11-20T10:40:56;42;41;
64114;PMS5003;62188;35.640;139.748;2022-11-20T10:43:21;39;37;
64114;PMS5003;62188;35.640;139.748;2022-11-20T10:45:52;37;35;
64114;PMS5003;62188;35.640;139.748;2022-11-20T10:48:14;38;37;
64114;PMS5003;62188;35.640;139.748;2022-11-20T10:50:37;37;34;
64114;PMS5003;62188;35.640;139.748;2022-11-20T10:53:02;36;34;
64114;PMS5003;62188;35.640;139.748;2022-11-20T10:55:30;36;33;
64114;PMS5003;62188;35.640;139.748;2022-11-20T10:57:53;36;33;
64114;PMS5003;62188;35.640;139.748;2022-11-20T11:00:17;33;31;
64114;PMS5003;62188;35.640;139.748;2022-11-20T11:02:44;38;37;
64114;PMS5003;62188;35.640;139.748;2022-11-20T11:05:14;36;36;
64114;PMS5003;62188;35.640;139.748;2022-11-20T11:07:35;33;32;
64114;PMS5003;62188;35.640;139.748;2022-11-20T11:09:59;35;30;
64114;PMS5003;62188;35.640;139.748;2022-11-20T11:12:25;36;33;
64114;PMS5003;62188;35.640;139.748;2022-11-20T11:14:51;31;29;
64114;PMS5003;62188;35.640;139.748;2022-11-20T11:17:23;28;28;
64114;PMS5003;62188;35.640;139.748;2022-11-20T11:19:41;31;31;
64114;PMS5003;62188;35.640;139.748;2022-11-20T11:22:06;33;30;
64114;PMS5003;62188;35.640;139.748;2022-11-20T11:24:32;34;32;
64114;PMS5003;62188;35.640;139.748;2022-11-20T11:26:57;34;34;
64114;PMS5003;62188;35.640;139.748;2022-11-20T11:29:23;31;30;
64114;PMS5003;62188;35.640;139.748;2022-11-20T11:31:48;34;33;
64114;PMS5003;62188;35.640;139.748;2022-11-20T11:34:14;41;37;
64114;PMS5003;62188;35.640;139.748;2022-11-20T11:36:39;35;34;
64114;PMS5003;62188;35.640;139.748;2022-11-20T11:39:05;31;30;
64114;PMS5003;62188;35.640;139.748;2022-11-20T11:41:31;33;32;
64114;PMS5003;62188;35.640;139.748;2022-11-20T11:43:56;32;30;
64114;PMS5003;62188;35.640;139.748;2022-11-20T11:46:27;38;35;
64114;PMS5003;62188;35.640;139.748;2022-11-20T11:51:10;27;27;
64114;PMS5003;62188;35.640;139.748;2022-11-20T11:53:36;32;31;
64114;PMS5003;62188;35.640;139.748;2022-11-20T11:56:02;32;29;
64114;PMS5003;62188;35.640;139.748;2022-11-20T11:58:32;29;28;
64114;PMS5003;62188;35.640;139.748;2022-11-20T12:00:54;29;27;
64114;PMS5003;62188;35.640;139.748;2022-11-20T12:03:18;30;28;
64114;PMS5003;62188;35.640;139.748;2022-11-20T12:05:43;37;35;
64114;PMS5003;62188;35.640;139.748;2022-11-20T12:08:10;31;31;
64114;PMS5003;62188;35.640;139.748;2022-11-20T12:10:37;27;26;
64114;PMS5003;62188;35.640;139.748;2022-11-20T12:13:00;29;29;
64114;PMS5003;62188;35.640;139.748;2022-11-20T12:15:28;35;33;
64114;PMS5003;62188;35.640;139.748;2022-11-20T12:17:49;30;28;
64114;PMS5003;62188;35.640;139.748;2022-11-20T12:20:14;25;25;
64114;PMS5003;62188;35.640;139.748;2022-11-20T12:22:41;31;31;
64114;PMS5003;62188;35.640;139.748;2022-11-20T12:25:06;33;32;
64114;PMS5003;62188;35.640;139.748;2022-11-20T12:27:38;28;27;
64114;PMS5003;62188;35.640;139.748;2022-11-20T12:29:58;28;28;
64114;PMS5003;62188;35.640;139.748;2022-11-20T12:32:29;28;27;
64114;PMS5003;62188;35.640;139.748;2022-11-20T12:34:50;25;25;
64114;PMS5003;62188;35.640;139.748;2022-11-20T12:37:16;26;25;
64114;PMS5003;62188;35.640;139.748;2022-11-20T12:39:40;33;28;
64114;PMS5003;62188;35.640;139.748;2022-11-20T12:42:07;30;28;
64114;PMS5003;62188;35.640;139.748;2022-11-20T12:44:33;25;24;
64114;PMS5003;62188;35.640;139.748;2022-11-20T12:46:55;28;28;
64114;PMS5003;62188;35.640;139.748;2022-11-20T12:49:23;24;24;
64114;PMS5003;62188;35.640;139.748;2022-11-20T12:51:50;27;26;
64114;PMS5003;62188;35.640;139.748;2022-11-20T12:56:37;33;30;
64114;PMS5003;62188;35.640;139.748;2022-11-20T12:59:04;32;31;
64114;PMS5003;62188;35.640;139.748;2022-11-20T13:01:28;32;31;
64114;PMS5003;62188;35.640;139.748;2022-11-20T13:03:51;33;30;
64114;PMS5003;62188;35.640;139.748;2022-11-20T13:06:18;28;28;
64114;PMS5003;62188;35.640;139.748;2022-11-20T13:08:43;31;26;
64114;PMS5003;62188;35.640;139.748;2022-11-20T13:11:12;26;26;
64114;PMS5003;62188;35.640;139.748;2022-11-20T13:13:35;28;25;
64114;PMS5003;62188;35.640;139.748;2022-11-20T13:16:00;30;29;
64114;PMS5003;62188;35.640;139.748;2022-11-20T13:18:24;29;27;
64114;PMS5003;62188;35.640;139.748;2022-11-20T13:20:49;27;27;
64114;PMS5003;62188;35.640;139.748;2022-11-20T13:25:40;26;24;
64114;PMS5003;62188;35.640;139.748;2022-11-20T13:30:31;24;24;
64114;PMS5003;62188;35.640;139.748;2022-11-20T13:32:56;25;24;
64114;PMS5003;62188;35.640;139.748;2022-11-20T13:35:26;22;22;
64114;PMS5003;62188;35.640;139.748;2022-11-20T13:37:47;22;22;
64114;PMS5003;62188;35.640;139.748;2022-11-20T13:40:19;25;25;
64114;PMS5003;62188;35.640;139.748;2022-11-20T13:42:38;25;22;
64114;PMS5003;62188;35.640;139.748;2022-11-20T13:45:08;21;21;
64114;PMS5003;62188;35.640;139.748;2022-11-20T13:47:28;25;22;
64114;PMS5003;62188;35.640;139.748;2022-11-20T13:49:53;29;29;
64114;PMS5003;62188;35.640;139.748;2022-11-20T13:57:17;21;21;
64114;PMS5003;62188;35.640;139.748;2022-11-20T13:59:39;20;20;
64114;PMS5003;62188;35.640;139.748;2022-11-20T14:02:00;23;22;
64114;PMS5003;62188;35.640;139.748;2022-11-20T14:04:26;22;21;
64114;PMS5003;62188;35.640;139.748;2022-11-20T14:06:51;23;22;
64114;PMS5003;62188;35.640;139.748;2022-11-20T14:14:13;24;23;
64114;PMS5003;62188;35.640;139.748;2022-11-20T14:16:33;20;20;
64114;PMS5003;62188;35.640;139.748;2022-11-20T14:18:58;20;20;
64114;PMS5003;62188;35.640;139.748;2022-11-20T14:21:25;20;20;
64114;PMS5003;62188;35.640;139.748;2022-11-20T14:23:47;25;24;
64114;PMS5003;62188;35.640;139.748;2022-11-20T14:26:14;26;24;
64114;PMS5003;62188;35.640;139.748;2022-11-20T14:28:38;27;26;
64114;PMS5003;62188;35.640;139.748;2022-11-20T14:31:04;24;23;
64114;PMS5003;62188;35.640;139.748;2022-11-20T14:33:30;22;21;
64114;PMS5003;62188;35.640;139.748;2022-11-20T14:35:55;24;24;
64114;PMS5003;62188;35.640;139.748;2022-11-20T14:38:21;23;22;
64114;PMS5003;62188;35.640;139.748;2022-11-20T14:40:46;26;23;
64114;PMS5003;62188;35.640;139.748;2022-11-20T14:43:17;23;22;
64114;PMS5003;62188;35.640;139.748;2022-11-20T14:45:36;26;24;
64114;PMS5003;62188;35.640;139.748;2022-11-20T14:48:02;22;21;
64114;PMS5003;62188;35.640;139.748;2022-11-20T14:50:28;19;19;
64114;PMS5003;62188;35.640;139.748;2022-11-20T14:52:54;23;22;
64114;PMS5003;62188;35.640;139.748;2022-11-20T14:55:28;22;22;
64114;PMS5003;62188;35.640;139.748;2022-11-20T14:57:44;23;22;
64114;PMS5003;62188;35.640;139.748;2022-11-20T15:02:38;20;20;
64114;PMS5003;62188;35.640;139.748;2022-11-20T15:05:01;23;22;
64114;PMS5003;62188;35.640;139.748;2022-11-20T15:07:27;23;22;
64114;PMS5003;62188;35.640;139.748;2022-11-20T15:12:16;21;20;
64114;PMS5003;62188;35.640;139.748;2022-11-20T15:14:49;20;20;
64114;PMS5003;62188;35.640;139.748;2022-11-20T15:17:07;23;20;
64114;PMS5003;62188;35.640;139.748;2022-11-20T15:19:33;20;20;
64114;PMS5003;62188;35.640;139.748;2022-11-20T15:21:58;21;20;
64114;PMS5003;62188;35.640;139.748;2022-11-20T15:24:23;21;20;
64114;PMS5003;62188;35.640;139.748;2022-11-20T15:26:49;23;22;
64114;PMS5003;62188;35.640;139.748;2022-11-20T15:29:15;21;21;
64114;PMS5003;62188;35.640;139.748;2022-11-20T15:31:40;20;19;
64114;PMS5003;62188;35.640;139.748;2022-11-20T15:34:07;23;22;
64114;PMS5003;62188;35.640;139.748;2022-11-20T15:36:31;20;18;
64114;PMS5003;62188;35.640;139.748;2022-11-20T15:38:56;21;21;
64114;PMS5003;62188;35.640;139.748;2022-11-20T15:41:22;21;21;
64114;PMS5003;62188;35.640;139.748;2022-11-20T15:43:47;18;18;
64114;PMS5003;62188;35.640;139.748;2022-11-20T15:46:13;17;16;
64114;PMS5003;62188;35.640;139.748;2022-11-20T15:48:39;18;18;
64114;PMS5003;62188;35.640;139.748;2022-11-20T15:51:03;17;16;
64114;PMS5003;62188;35.640;139.748;2022-11-20T15:53:29;22;21;
64114;PMS5003;62188;35.640;139.748;2022-11-20T15:55:54;16;16;
64114;PMS5003;62188;35.640;139.748;2022-11-20T15:58:19;17;17;
64114;PMS5003;62188;35.640;139.748;2022-11-20T16:00:45;18;17;
64114;PMS5003;62188;35.640;139.748;2022-11-20T16:03:11;17;16;
64114;PMS5003;62188;35.640;139.748;2022-11-20T16:05:36;18;17;